Time;durP1;ratioP1;P1;durP2;ratioP2;P2;SDS_P1;SDS_P2;PMS_P1;PMS_P2;Temp;Humidity;BMP_temperature;BMP_pressure;BME280_temperature;BME280_humidity;BME280_pressure;Samples;Min_cycle;Max_cycle;Signal;HPM_P1;HPM_P2
2020/12/02 00:00:51;;;;;;;79.03;17.23;;;6.80;92.00;;;;;;5091152;28;20020;-56
2020/12/02 00:04:18;;;;;;;61.55;16.60;;;6.80;92.00;;;;;;5107679;28;20112;-55
2020/12/02 00:06:44;;;;;;;86.95;18.98;;;6.70;91.90;;;;;;5077649;28;20119;-57
2020/12/02 00:09:14;;;;;;;84.43;17.83;;;6.80;91.90;;;;;;5091541;28;20099;-56
2020/12/02 00:11:40;;;;;;;74.53;18.35;;;6.70;91.90;;;;;;5091221;28;20463;-56
2020/12/02 00:14:08;;;;;;;69.10;18.48;;;6.70;91.90;;;;;;5090904;28;20136;-56
2020/12/02 00:16:33;;;;;;;75.55;16.83;;;6.70;91.90;;;;;;5089249;28;20031;-57
2020/12/02 00:19:00;;;;;;;61.63;16.58;;;6.70;91.90;;;;;;5090588;28;20028;-56
2020/12/02 00:21:27;;;;;;;78.10;17.67;;;6.70;91.90;;;;;;5091009;28;20019;-57
2020/12/02 00:23:53;;;;;;;65.78;16.42;;;6.70;91.80;;;;;;5098145;28;20080;-56
2020/12/02 00:26:19;;;;;;;74.80;17.15;;;6.70;91.80;;;;;;5090926;28;20484;-57
2020/12/02 00:28:44;;;;;;;82.18;16.88;;;6.70;91.80;;;;;;5072902;28;20028;-56
2020/12/02 00:31:10;;;;;;;69.40;18.65;;;6.60;91.80;;;;;;5106779;28;20075;-57
2020/12/02 00:33:36;;;;;;;67.78;16.23;;;6.60;91.80;;;;;;5108770;28;20609;-56
2020/12/02 00:36:01;;;;;;;65.95;16.15;;;6.70;91.80;;;;;;5073568;28;20621;-57
2020/12/02 00:38:26;;;;;;;80.70;17.55;;;6.60;91.80;;;;;;5109287;28;20042;-56
2020/12/02 00:40:52;;;;;;;65.40;16.83;;;6.60;91.80;;;;;;5107451;28;20039;-56
2020/12/02 00:43:21;;;;;;;66.18;15.93;;;6.60;91.80;;;;;;5107075;28;20043;-56
2020/12/02 00:45:46;;;;;;;73.45;16.75;;;6.60;91.80;;;;;;5089788;28;20118;-57
2020/12/02 00:48:14;;;;;;;58.33;16.10;;;6.60;91.80;;;;;;5108665;28;20415;-56
2020/12/02 00:50:40;;;;;;;53.78;15.05;;;6.50;91.70;;;;;;5089853;28;20250;-56
2020/12/02 00:53:11;;;;;;;69.40;15.65;;;6.60;91.80;;;;;;5090401;28;20618;-56
2020/12/02 00:55:36;;;;;;;65.65;17.38;;;6.60;91.80;;;;;;5072750;28;20039;-57
2020/12/02 00:58:02;;;;;;;57.67;15.60;;;6.60;91.80;;;;;;5089179;28;20024;-56
2020/12/02 01:00:28;;;;;;;61.83;15.30;;;6.60;91.80;;;;;;5090025;28;20024;-55
2020/12/02 01:03:08;;;;;;;55.67;15.43;;;6.50;91.70;;;;;;5070135;28;20024;-56
2020/12/02 01:05:34;;;;;;;56.67;15.95;;;6.60;91.80;;;;;;5091260;28;20035;-56
2020/12/02 01:08:23;;;;;;;43.20;13.88;;;6.60;91.80;;;;;;5107457;28;20039;-55
2020/12/02 01:10:52;;;;;;;65.45;15.68;;;6.50;91.70;;;;;;5089120;28;20031;-56
2020/12/02 01:13:18;;;;;;;62.95;14.65;;;6.50;91.80;;;;;;5090131;28;20077;-57
2020/12/02 01:15:43;;;;;;;72.10;15.02;;;6.50;91.80;;;;;;5108175;28;20035;-55
2020/12/02 01:18:23;;;;;;;56.30;15.70;;;6.50;91.80;;;;;;5088693;28;20467;-57
2020/12/02 01:21:00;;;;;;;45.70;14.65;;;6.50;91.80;;;;;;5088389;28;20034;-58
2020/12/02 01:23:25;;;;;;;42.65;14.07;;;6.40;92.10;;;;;;5087799;28;20028;-56
2020/12/02 01:25:52;;;;;;;47.58;14.40;;;6.50;91.80;;;;;;5072762;28;20031;-56
2020/12/02 01:28:24;;;;;;;37.90;14.07;;;6.40;91.80;;;;;;5075059;28;20034;-56
2020/12/02 01:30:50;;;;;;;42.40;13.95;;;6.40;91.80;;;;;;5068277;28;20740;-57
2020/12/02 01:33:15;;;;;;;57.30;16.20;;;6.40;91.80;;;;;;5090165;28;20102;-55
2020/12/02 01:35:43;;;;;;;39.63;13.00;;;6.40;91.80;;;;;;5089408;28;20032;-56
2020/12/02 01:38:08;;;;;;;54.50;15.43;;;6.40;91.80;;;;;;5089959;28;20028;-56
2020/12/02 01:40:34;;;;;;;49.78;15.88;;;6.40;92.10;;;;;;5089223;28;20483;-55
2020/12/02 01:43:02;;;;;;;47.03;13.57;;;6.40;91.80;;;;;;5090237;28;20036;-56
2020/12/02 01:45:35;;;;;;;47.35;13.23;;;6.40;91.80;;;;;;5102694;28;20051;-56
2020/12/02 01:48:20;;;;;;;48.28;14.20;;;6.40;91.80;;;;;;5073703;28;20563;-56
2020/12/02 01:51:07;;;;;;;49.58;14.35;;;6.40;91.80;;;;;;5087906;28;20043;-57
2020/12/02 01:53:59;;;;;;;32.80;13.05;;;6.40;91.80;;;;;;5086316;28;20085;-56
2020/12/02 01:56:41;;;;;;;51.08;14.45;;;6.30;91.70;;;;;;5085122;28;20497;-56
2020/12/02 01:59:32;;;;;;;55.03;15.07;;;6.30;91.70;;;;;;5075460;28;20459;-56
2020/12/02 02:02:21;;;;;;;41.10;14.07;;;6.40;91.80;;;;;;5096223;27;20073;-56
2020/12/02 02:04:49;;;;;;;41.55;14.00;;;6.30;91.70;;;;;;5113488;27;20027;-55
2020/12/02 02:07:18;;;;;;;30.80;13.20;;;6.40;91.70;;;;;;5112375;27;20031;-56
2020/12/02 02:09:56;;;;;;;47.38;14.30;;;6.30;91.70;;;;;;5111409;28;20115;-57
2020/12/02 02:12:36;;;;;;;39.03;13.60;;;6.30;91.70;;;;;;5092721;28;20035;-56
2020/12/02 02:15:05;;;;;;;43.65;13.98;;;6.30;91.60;;;;;;5110612;27;20057;-56
2020/12/02 02:17:31;;;;;;;44.50;13.05;;;6.30;91.60;;;;;;5093803;28;20027;-57
2020/12/02 02:19:58;;;;;;;36.40;12.63;;;6.30;91.60;;;;;;5069999;28;20024;-56
2020/12/02 02:22:23;;;;;;;40.35;13.68;;;6.30;91.60;;;;;;5076427;28;20024;-56
2020/12/02 02:24:49;;;;;;;33.60;12.63;;;6.30;91.60;;;;;;5112289;27;20420;-57
2020/12/02 02:27:14;;;;;;;41.47;13.68;;;6.30;91.60;;;;;;5074507;28;20633;-56
2020/12/02 02:29:40;;;;;;;44.53;12.18;;;6.30;91.60;;;;;;5092583;28;20035;-56
2020/12/02 02:32:11;;;;;;;35.25;13.73;;;6.30;91.60;;;;;;5055408;28;20507;-56
2020/12/02 02:34:50;;;;;;;27.80;12.52;;;6.30;91.60;;;;;;5075873;28;20542;-56
2020/12/02 02:37:16;;;;;;;38.03;14.50;;;6.30;91.60;;;;;;5092219;28;20068;-56
2020/12/02 02:39:42;;;;;;;28.45;12.30;;;6.30;91.60;;;;;;5110176;27;20039;-56
2020/12/02 02:42:27;;;;;;;35.67;13.23;;;6.30;91.60;;;;;;5091535;28;20060;-56
2020/12/02 02:44:53;;;;;;;41.35;12.95;;;6.30;91.80;;;;;;5077829;28;20100;-56
2020/12/02 02:47:19;;;;;;;36.63;12.07;;;6.20;91.60;;;;;;5111403;27;20035;-56
2020/12/02 02:49:45;;;;;;;37.25;12.43;;;6.30;91.60;;;;;;5093072;28;20035;-55
2020/12/02 02:52:10;;;;;;;36.08;12.93;;;6.20;91.60;;;;;;5103814;27;20088;-56
2020/12/02 02:54:36;;;;;;;34.35;12.50;;;6.30;91.60;;;;;;5109023;28;20031;-56
2020/12/02 02:57:01;;;;;;;38.55;12.40;;;6.20;91.60;;;;;;5075171;28;20031;-56
2020/12/02 02:59:27;;;;;;;35.63;13.65;;;6.20;91.60;;;;;;5091832;28;20096;-56
2020/12/02 03:01:52;;;;;;;28.27;12.75;;;6.20;91.60;;;;;;5110189;28;21200;-56
2020/12/02 03:04:18;;;;;;;26.88;12.18;;;6.20;91.60;;;;;;5089606;28;20028;-56
2020/12/02 03:06:43;;;;;;;28.77;12.50;;;6.20;91.60;;;;;;5073023;28;20063;-57
2020/12/02 03:09:10;;;;;;;31.48;12.65;;;6.20;91.60;;;;;;5109533;28;20502;-57
2020/12/02 03:11:36;;;;;;;30.30;12.27;;;6.20;91.60;;;;;;5091834;28;20024;-55
2020/12/02 03:14:01;;;;;;;26.33;11.98;;;6.20;91.60;;;;;;5092322;28;20032;-56
2020/12/02 03:16:50;;;;;;;30.95;11.93;;;6.20;91.50;;;;;;5091804;28;20471;-56
2020/12/02 03:19:21;;;;;;;34.15;12.63;;;6.20;91.60;;;;;;5091815;28;20031;-56
2020/12/02 03:21:47;;;;;;;26.50;11.55;;;6.20;91.60;;;;;;5090700;28;20100;-56
2020/12/02 03:24:13;;;;;;;32.95;12.95;;;6.20;91.50;;;;;;5092666;28;20463;-56
2020/12/02 03:26:38;;;;;;;26.75;12.60;;;6.20;91.80;;;;;;5075115;28;20027;-57
2020/12/02 03:29:05;;;;;;;25.42;11.57;;;6.20;91.50;;;;;;5074756;28;20072;-55
2020/12/02 03:31:31;;;;;;;30.83;11.18;;;6.20;91.60;;;;;;5073217;28;20043;-56
2020/12/02 03:33:56;;;;;;;32.17;12.52;;;6.10;91.50;;;;;;5108407;28;20352;-56
2020/12/02 03:36:22;;;;;;;29.25;11.50;;;6.10;91.50;;;;;;5092010;28;20498;-57
2020/12/02 03:38:47;;;;;;;26.52;11.80;;;6.20;91.60;;;;;;5102648;28;20079;-57
2020/12/02 03:41:14;;;;;;;26.27;12.90;;;6.10;91.50;;;;;;5086289;28;20164;-56
2020/12/02 03:43:39;;;;;;;29.77;11.23;;;6.20;91.50;;;;;;5090233;28;20019;-57
2020/12/02 03:46:05;;;;;;;28.58;11.55;;;6.20;91.50;;;;;;5089990;28;20069;-57
2020/12/02 03:48:30;;;;;;;28.50;11.25;;;6.10;91.50;;;;;;5091733;28;20493;-56
2020/12/02 03:50:56;;;;;;;20.90;11.30;;;6.10;91.50;;;;;;5108934;28;20467;-57
2020/12/02 03:53:21;;;;;;;26.13;11.38;;;6.10;91.50;;;;;;5090106;28;20024;-55
2020/12/02 03:55:47;;;;;;;35.22;12.48;;;6.10;91.50;;;;;;5068885;28;20028;-57
2020/12/02 03:58:13;;;;;;;23.88;11.07;;;6.10;91.50;;;;;;5071790;28;20503;-56
2020/12/02 04:00:38;;;;;;;32.85;12.35;;;6.10;91.50;;;;;;5107719;28;20460;-56
2020/12/02 04:03:04;;;;;;;25.88;11.93;;;6.10;91.50;;;;;;5091762;28;20027;-57
2020/12/02 04:05:30;;;;;;;27.48;12.57;;;6.10;91.50;;;;;;5090395;28;20024;-55
2020/12/02 04:07:55;;;;;;;27.20;12.05;;;6.10;91.50;;;;;;5071153;28;20391;-57
2020/12/02 04:10:21;;;;;;;27.00;11.93;;;6.10;91.50;;;;;;5106475;28;20066;-57
2020/12/02 04:12:46;;;;;;;28.48;11.73;;;6.10;91.50;;;;;;5056177;28;20111;-56
2020/12/02 04:15:13;;;;;;;21.00;11.95;;;6.10;91.40;;;;;;5090184;28;20032;-57
2020/12/02 04:17:39;;;;;;;27.50;11.73;;;6.10;91.40;;;;;;5074025;28;20095;-56
2020/12/02 04:20:04;;;;;;;21.38;12.32;;;6.10;91.40;;;;;;5089835;28;20114;-57
2020/12/02 04:22:30;;;;;;;24.30;11.93;;;6.10;91.40;;;;;;5107905;28;20488;-57
2020/12/02 04:24:55;;;;;;;28.38;12.90;;;6.10;91.60;;;;;;5088505;28;20526;-56
2020/12/02 04:27:21;;;;;;;26.10;12.23;;;6.10;91.70;;;;;;5089520;28;20089;-56
2020/12/02 04:29:46;;;;;;;32.03;12.50;;;6.10;91.70;;;;;;5108424;28;20038;-56
2020/12/02 04:32:12;;;;;;;27.63;11.27;;;6.10;91.80;;;;;;5108449;28;20454;-55
2020/12/02 04:34:37;;;;;;;24.63;11.45;;;6.10;91.70;;;;;;5089832;28;20031;-57
2020/12/02 04:37:03;;;;;;;24.27;11.98;;;6.10;91.70;;;;;;5088353;28;20435;-57
2020/12/02 04:39:29;;;;;;;27.52;13.00;;;6.10;91.70;;;;;;5103506;28;20474;-56
2020/12/02 04:41:54;;;;;;;25.73;12.10;;;6.10;91.80;;;;;;5071034;28;20036;-56
2020/12/02 04:44:20;;;;;;;24.20;11.65;;;6.10;91.80;;;;;;5108299;28;20099;-56
2020/12/02 04:46:45;;;;;;;24.55;12.15;;;6.10;91.80;;;;;;5090698;28;20024;-57
2020/12/02 04:49:27;;;;;;;27.42;12.85;;;6.10;91.80;;;;;;5107513;28;20055;-56
2020/12/02 04:52:03;;;;;;;23.30;12.75;;;6.10;91.70;;;;;;5069803;28;20035;-57
2020/12/02 04:54:28;;;;;;;23.88;12.52;;;6.10;91.70;;;;;;5072079;28;20509;-55
2020/12/02 04:56:54;;;;;;;23.20;11.63;;;6.10;91.70;;;;;;5089597;28;20027;-57
2020/12/02 04:59:19;;;;;;;22.63;11.55;;;6.10;91.70;;;;;;5108259;28;20033;-56
2020/12/02 05:01:46;;;;;;;22.70;12.40;;;6.10;91.70;;;;;;5088435;28;20035;-56
2020/12/02 05:04:23;;;;;;;21.95;11.77;;;6.10;91.70;;;;;;5088335;28;20050;-56
2020/12/02 05:06:51;;;;;;;21.58;11.63;;;6.10;91.60;;;;;;5089365;28;20027;-58
2020/12/02 05:09:21;;;;;;;18.73;13.00;;;6.10;91.60;;;;;;5071087;28;20028;-57
2020/12/02 05:11:58;;;;;;;25.67;12.07;;;6.10;91.70;;;;;;5070798;28;20019;-56
2020/12/02 05:14:25;;;;;;;21.92;12.80;;;6.10;91.70;;;;;;5068049;28;20082;-58
2020/12/02 05:17:00;;;;;;;23.83;13.10;;;6.10;91.70;;;;;;5090211;28;20032;-56
2020/12/02 05:19:25;;;;;;;26.50;12.02;;;6.10;91.70;;;;;;5075021;28;20048;-56
2020/12/02 05:21:51;;;;;;;22.90;13.07;;;6.10;91.60;;;;;;5081336;28;20453;-57
2020/12/02 05:24:18;;;;;;;25.42;12.13;;;6.10;91.60;;;;;;5073935;28;20040;-56
2020/12/02 05:26:48;;;;;;;20.98;12.43;;;6.20;91.60;;;;;;5089609;28;20535;-56
2020/12/02 05:29:35;;;;;;;14.88;12.18;;;6.10;91.60;;;;;;5071505;28;20040;-56
2020/12/02 05:32:15;;;;;;;21.27;12.95;;;6.10;91.70;;;;;;5073461;28;20047;-57
2020/12/02 05:34:41;;;;;;;26.50;12.75;;;6.10;91.60;;;;;;5074932;28;20019;-56
2020/12/02 05:37:11;;;;;;;21.55;13.60;;;6.10;91.90;;;;;;5098471;28;20020;-55
2020/12/02 05:39:56;;;;;;;22.45;13.07;;;6.20;91.70;;;;;;5094579;28;20024;-56
2020/12/02 05:42:30;;;;;;;26.60;13.63;;;6.20;91.70;;;;;;5093972;28;20671;-56
2020/12/02 05:45:18;;;;;;;26.55;14.10;;;6.10;91.70;;;;;;5076763;28;20420;-56
2020/12/02 05:47:44;;;;;;;21.08;13.60;;;6.10;91.70;;;;;;5074189;28;20047;-57
2020/12/02 05:50:13;;;;;;;23.05;12.85;;;6.10;91.70;;;;;;5094277;28;20395;-57
2020/12/02 05:52:40;;;;;;;23.52;12.80;;;6.10;91.70;;;;;;5089574;28;20024;-56
2020/12/02 05:55:25;;;;;;;23.23;14.07;;;6.10;91.70;;;;;;5069379;28;20047;-59
2020/12/02 05:58:09;;;;;;;18.67;12.60;;;6.10;92.00;;;;;;5078820;28;20070;-56
2020/12/02 06:00:34;;;;;;;22.58;11.77;;;6.10;91.60;;;;;;5111072;28;20594;-57
2020/12/02 06:03:00;;;;;;;19.73;12.20;;;6.10;91.60;;;;;;5082236;28;20084;-56
2020/12/02 06:05:29;;;;;;;19.98;13.05;;;6.10;91.60;;;;;;5082942;28;20382;-57
2020/12/02 06:07:58;;;;;;;22.85;12.43;;;6.10;91.60;;;;;;5095290;28;20050;-57
2020/12/02 06:10:31;;;;;;;18.25;11.98;;;6.10;91.60;;;;;;5095504;28;20026;-56
2020/12/02 06:12:57;;;;;;;22.08;13.13;;;6.10;91.60;;;;;;5076451;28;20126;-56
2020/12/02 06:15:23;;;;;;;21.85;12.60;;;6.10;91.60;;;;;;5096542;28;20098;-56
2020/12/02 06:17:48;;;;;;;24.08;12.70;;;6.00;91.50;;;;;;5075908;28;20089;-56
2020/12/02 06:20:14;;;;;;;19.52;12.27;;;6.10;91.60;;;;;;5095722;28;20031;-55
2020/12/02 06:22:47;;;;;;;25.35;13.85;;;6.10;91.50;;;;;;5079291;28;20043;-57
2020/12/02 06:25:51;;;;;;;21.80;13.30;;;6.10;91.50;;;;;;5097086;28;20027;-57
2020/12/02 06:28:29;;;;;;;21.17;12.52;;;6.10;91.50;;;;;;5091230;28;20134;-56
2020/12/02 06:30:56;;;;;;;24.95;12.38;;;6.10;91.60;;;;;;5107588;28;20047;-57
2020/12/02 06:33:22;;;;;;;27.48;12.48;;;6.10;91.50;;;;;;5080416;28;20643;-59
2020/12/02 06:35:49;;;;;;;25.65;14.00;;;6.10;91.50;;;;;;5076365;28;20070;-56
2020/12/02 06:38:25;;;;;;;23.27;14.60;;;6.10;91.50;;;;;;5109768;28;20027;-57
2020/12/02 06:40:58;;;;;;;19.73;13.68;;;6.10;91.50;;;;;;5110499;27;20024;-56
2020/12/02 06:43:24;;;;;;;26.63;13.85;;;6.10;91.50;;;;;;5102429;28;20483;-56
2020/12/02 06:45:49;;;;;;;28.85;13.45;;;6.10;91.50;;;;;;5090603;28;20023;-57
2020/12/02 06:48:24;;;;;;;34.35;13.73;;;6.10;91.50;;;;;;5091223;28;20071;-57
2020/12/02 06:50:49;;;;;;;23.50;14.10;;;6.20;91.60;;;;;;5082097;28;20547;-56
2020/12/02 06:53:19;;;;;;;25.13;13.50;;;6.10;91.50;;;;;;5089650;28;20412;-56
2020/12/02 06:55:45;;;;;;;24.98;13.57;;;6.20;91.50;;;;;;5080427;28;20028;-56
2020/12/02 06:58:14;;;;;;;19.15;12.88;;;6.10;91.50;;;;;;5107406;27;20036;-56
2020/12/02 07:00:49;;;;;;;23.77;12.93;;;6.10;91.50;;;;;;5057373;28;20040;-57
2020/12/02 07:03:49;;;;;;;25.42;12.35;;;6.20;91.50;;;;;;5090156;27;20020;-56
2020/12/02 07:06:19;;;;;;;22.85;13.73;;;6.20;91.40;;;;;;5105848;27;20070;-57
2020/12/02 07:08:45;;;;;;;20.77;13.23;;;6.10;91.40;;;;;;5092830;28;20027;-57
2020/12/02 07:11:18;;;;;;;23.10;12.80;;;6.20;91.40;;;;;;5080452;28;20031;-56
2020/12/02 07:13:45;;;;;;;24.77;12.75;;;6.10;91.30;;;;;;5097698;28;20039;-55
2020/12/02 07:16:31;;;;;;;18.48;12.30;;;6.10;91.30;;;;;;5074676;27;20068;-56
2020/12/02 07:19:02;;;;;;;20.80;12.60;;;6.10;91.40;;;;;;5090864;28;20069;-55
2020/12/02 07:21:33;;;;;;;19.27;11.93;;;6.10;91.50;;;;;;5094787;28;20110;-57
2020/12/02 07:23:59;;;;;;;18.38;13.07;;;6.20;91.50;;;;;;5074203;28;20445;-56
2020/12/02 07:26:25;;;;;;;57.58;12.65;;;6.10;91.50;;;;;;5075844;28;20031;-57
2020/12/02 07:29:09;;;;;;;42.05;13.55;;;6.10;91.40;;;;;;5107306;28;20046;-56
2020/12/02 07:31:35;;;;;;;22.98;12.57;;;6.20;91.40;;;;;;5090815;28;20047;-57
2020/12/02 07:34:19;;;;;;;27.48;12.35;;;6.20;91.40;;;;;;5073632;28;20387;-57
2020/12/02 07:36:45;;;;;;;22.52;11.80;;;6.10;91.30;;;;;;5093773;27;20028;-57
2020/12/02 07:39:18;;;;;;;22.13;11.75;;;6.20;91.30;;;;;;5106277;27;20543;-57
2020/12/02 07:41:54;;;;;;;21.52;11.88;;;6.10;91.30;;;;;;5101781;28;20096;-56
2020/12/02 07:44:20;;;;;;;20.35;11.20;;;6.10;91.30;;;;;;5104336;28;20446;-56
2020/12/02 07:46:46;;;;;;;23.58;12.05;;;6.10;91.20;;;;;;5092567;27;20122;-55
2020/12/02 07:49:12;;;;;;;30.08;12.15;;;6.20;91.20;;;;;;5092301;28;20429;-57
2020/12/02 07:51:47;;;;;;;22.75;11.85;;;6.10;91.20;;;;;;5082559;28;20039;-55
2020/12/02 07:54:15;;;;;;;;;;;6.10;91.20;;;;;;5083936;28;20082;-57
2020/12/02 07:56:40;;;;;;;26.80;11.70;;;6.10;91.20;;;;;;5091753;27;20006;-57
2020/12/02 07:59:15;;;;;;;20.45;12.18;;;6.10;91.20;;;;;;5088420;28;20106;-57
2020/12/02 08:01:58;;;;;;;24.50;12.15;;;6.10;91.20;;;;;;5072126;27;20030;-55
2020/12/02 08:04:34;;;;;;;18.42;12.50;;;6.10;91.20;;;;;;5090271;27;20016;-56
2020/12/02 08:07:05;;;;;;;19.65;10.88;;;6.10;91.20;;;;;;5090117;28;20038;-56
2020/12/02 08:09:44;;;;;;;23.23;11.68;;;6.10;91.20;;;;;;5105649;28;20073;-57
2020/12/02 08:12:13;;;;;;;22.45;10.65;;;6.10;91.20;;;;;;5104417;28;20047;-57
2020/12/02 08:14:44;;;;;;;19.25;11.38;;;6.10;91.10;;;;;;5089935;28;20112;-56
2020/12/02 08:17:23;;;;;;;28.83;11.80;;;6.10;91.10;;;;;;5070628;28;20067;-57
2020/12/02 08:19:51;;;;;;;24.38;11.95;;;6.10;91.00;;;;;;5108649;27;20028;-56
2020/12/02 08:22:39;;;;;;;23.65;10.95;;;6.10;91.00;;;;;;5066406;28;20130;-56
2020/12/02 08:25:38;;;;;;;24.50;10.95;;;6.10;91.00;;;;;;5084218;28;20384;-56
2020/12/02 08:28:08;;;;;;;21.88;10.90;;;6.10;90.90;;;;;;5088177;28;20453;-56
2020/12/02 08:30:34;;;;;;;17.13;10.60;;;6.10;90.90;;;;;;5031944;28;20728;-57
2020/12/02 08:33:10;;;;;;;19.17;9.70;;;6.10;90.80;;;;;;5074818;28;20032;-56
2020/12/02 08:35:41;;;;;;;25.40;10.80;;;6.10;90.80;;;;;;5096853;28;20043;-55
2020/12/02 08:38:16;;;;;;;49.78;12.18;;;6.10;90.80;;;;;;5103058;27;20050;-57
2020/12/02 08:40:51;;;;;;;42.95;10.48;;;6.10;90.80;;;;;;5071768;28;20032;-56
2020/12/02 08:43:18;;;;;;;31.35;11.18;;;6.10;90.80;;;;;;5083611;28;20044;-57
2020/12/02 08:46:08;;;;;;;27.30;10.60;;;6.10;90.80;;;;;;5094146;28;20080;-56
2020/12/02 08:48:37;;;;;;;30.48;11.02;;;6.10;90.80;;;;;;5098110;28;20084;-57
2020/12/02 08:51:04;;;;;;;23.08;10.50;;;6.10;90.80;;;;;;5085883;28;20019;-57
2020/12/02 08:53:31;;;;;;;30.48;10.85;;;6.10;90.70;;;;;;5107329;28;20074;-56
2020/12/02 08:55:56;;;;;;;21.10;10.23;;;6.10;90.70;;;;;;5106432;28;20464;-56
2020/12/02 08:58:22;;;;;;;31.45;10.35;;;6.10;90.70;;;;;;5077262;28;20098;-55
2020/12/02 09:00:47;;;;;;;59.25;13.23;;;6.10;90.60;;;;;;5103635;28;20020;-57
2020/12/02 09:03:13;;;;;;;44.42;11.10;;;6.10;90.70;;;;;;5081348;28;20191;-56
2020/12/02 09:05:39;;;;;;;23.05;10.30;;;6.10;90.60;;;;;;5072640;28;20474;-56
2020/12/02 09:08:04;;;;;;;28.52;10.18;;;6.10;90.60;;;;;;5106203;28;20066;-56
2020/12/02 09:10:30;;;;;;;31.25;10.95;;;6.10;90.60;;;;;;5108209;28;20399;-57
2020/12/02 09:12:56;;;;;;;23.45;9.75;;;6.10;90.60;;;;;;5102238;28;20039;-57
2020/12/02 09:15:22;;;;;;;22.63;9.70;;;6.10;90.50;;;;;;5092458;28;20043;-58
2020/12/02 09:17:47;;;;;;;28.27;10.18;;;6.20;90.50;;;;;;5094240;28;20023;-57
2020/12/02 09:20:13;;;;;;;32.85;11.80;;;6.20;90.50;;;;;;5103983;28;20498;-55
2020/12/02 09:22:38;;;;;;;23.45;10.00;;;6.20;90.50;;;;;;5105315;28;20117;-56
2020/12/02 09:25:04;;;;;;;36.08;11.00;;;6.20;90.50;;;;;;5101265;28;20038;-57
2020/12/02 09:27:31;;;;;;;49.92;11.25;;;6.20;90.50;;;;;;5086251;28;20058;-56
2020/12/02 09:29:57;;;;;;;56.05;13.55;;;6.20;90.50;;;;;;5086165;28;20864;-57
2020/12/02 09:32:22;;;;;;;59.33;13.77;;;6.20;90.50;;;;;;5108377;28;20126;-56
2020/12/02 09:34:48;;;;;;;48.67;13.13;;;6.20;90.50;;;;;;5108366;28;20028;-56
2020/12/02 09:37:14;;;;;;;74.63;15.80;;;6.30;90.50;;;;;;5089369;28;20023;-56
2020/12/02 09:39:42;;;;;;;59.45;13.73;;;6.30;90.50;;;;;;5088280;28;20044;-55
2020/12/02 09:42:17;;;;;;;42.90;12.05;;;6.30;90.50;;;;;;5087560;28;20036;-55
2020/12/02 09:45:00;;;;;;;53.20;13.27;;;6.30;90.40;;;;;;5108529;27;20040;-56
2020/12/02 09:47:26;;;;;;;49.67;13.15;;;6.30;90.40;;;;;;5084611;28;20043;-56
2020/12/02 09:49:52;;;;;;;73.00;14.77;;;6.30;90.40;;;;;;5107452;28;20031;-57
2020/12/02 09:52:40;;;;;;;49.67;13.27;;;6.40;90.50;;;;;;5108870;28;20035;-56
2020/12/02 09:55:17;;;;;;;45.65;13.25;;;6.40;90.50;;;;;;5084299;28;20032;-56
2020/12/02 09:57:42;;;;;;;61.40;13.20;;;6.40;90.40;;;;;;5091012;27;20046;-58
2020/12/02 10:00:09;;;;;;;53.75;12.88;;;6.40;90.40;;;;;;5111528;27;20023;-56
2020/12/02 10:02:43;;;;;;;65.47;14.13;;;6.40;90.40;;;;;;5109789;27;20027;-57
2020/12/02 10:05:13;;;;;;;73.22;15.73;;;6.40;90.40;;;;;;5086433;28;20028;-56
2020/12/02 10:07:50;;;;;;;69.63;14.18;;;6.40;90.40;;;;;;5090237;28;20051;-56
2020/12/02 10:10:30;;;;;;;47.38;13.15;;;6.40;90.30;;;;;;5090977;28;20383;-57
2020/12/02 10:13:12;;;;;;;56.53;13.23;;;6.50;90.30;;;;;;5091440;27;20063;-57
2020/12/02 10:16:01;;;;;;;44.17;12.77;;;6.50;90.20;;;;;;5091349;28;20016;-55
2020/12/02 10:18:47;;;;;;;56.88;12.80;;;6.50;90.10;;;;;;5089940;28;20430;-56
2020/12/02 10:21:37;;;;;;;47.25;13.45;;;6.50;90.10;;;;;;5087958;28;20032;-57
2020/12/02 10:24:18;;;;;;;37.03;12.93;;;6.50;90.00;;;;;;5088748;28;20024;-57
2020/12/02 10:27:23;;;;;;;40.53;12.52;;;6.40;89.90;;;;;;5090685;28;20558;-56
2020/12/02 10:30:11;;;;;;;57.47;13.43;;;6.50;89.80;;;;;;5073821;28;20651;-55
2020/12/02 10:33:05;;;;;;;50.30;12.05;;;6.50;89.70;;;;;;5085344;28;20131;-57
2020/12/02 10:35:32;;;;;;;46.83;13.70;;;6.50;89.60;;;;;;5068527;28;20040;-57
2020/12/02 10:38:00;;;;;;;58.60;13.10;;;6.50;89.60;;;;;;5072601;28;20024;-55
2020/12/02 10:40:27;;;;;;;47.40;12.55;;;6.50;89.60;;;;;;5063250;28;20115;-57
2020/12/02 10:43:06;;;;;;;56.20;12.70;;;6.50;89.60;;;;;;5067594;28;20027;-58
2020/12/02 10:45:31;;;;;;;44.65;12.10;;;6.50;89.60;;;;;;5062122;27;20032;-56
2020/12/02 10:48:18;;;;;;;42.40;13.18;;;6.40;89.60;;;;;;5098680;28;20066;-56
2020/12/02 10:50:44;;;;;;;41.55;13.00;;;6.50;89.70;;;;;;5099488;28;20126;-56
2020/12/02 10:53:14;;;;;;;34.72;12.05;;;6.50;89.60;;;;;;5068718;28;20059;-55
2020/12/02 10:55:40;;;;;;;37.25;12.20;;;6.50;89.60;;;;;;5096933;28;20515;-57
2020/12/02 10:58:18;;;;;;;37.78;12.70;;;6.40;89.60;;;;;;5084991;28;20248;-57
2020/12/02 11:00:51;;;;;;;49.05;12.40;;;6.50;89.60;;;;;;5075068;28;20153;-56
2020/12/02 11:03:24;;;;;;;43.65;11.68;;;6.50;90.00;;;;;;5086497;28;20675;-56
2020/12/02 11:06:08;;;;;;;42.90;12.95;;;6.50;89.60;;;;;;5073519;28;20041;-56
2020/12/02 11:08:52;;;;;;;51.10;12.95;;;6.50;89.50;;;;;;5079420;28;20050;-57
2020/12/02 11:11:22;;;;;;;42.63;12.63;;;6.50;89.50;;;;;;5100040;28;20032;-57
2020/12/02 11:14:01;;;;;;;32.78;12.10;;;6.50;89.50;;;;;;5082492;28;20070;-56
2020/12/02 11:16:38;;;;;;;41.03;12.65;;;6.50;89.60;;;;;;5084621;28;20382;-56
2020/12/02 11:19:24;;;;;;;52.50;13.00;;;6.50;89.60;;;;;;5088308;28;20036;-56
2020/12/02 11:22:02;;;;;;;66.55;14.07;;;6.50;89.50;;;;;;5068259;28;20114;-55
2020/12/02 11:25:07;;;;;;;60.55;14.38;;;6.60;89.30;;;;;;5056484;28;20031;-56
2020/12/02 11:27:32;;;;;;;44.35;13.07;;;6.60;89.50;;;;;;5070293;28;20050;-59
2020/12/02 11:29:58;;;;;;;52.42;15.43;;;6.60;89.40;;;;;;5067177;27;20561;-58
2020/12/02 11:32:48;;;;;;;37.10;12.13;;;6.60;89.40;;;;;;5082158;28;20492;-56
2020/12/02 11:35:19;;;;;;;36.38;11.77;;;6.60;89.30;;;;;;5088853;27;20027;-57
2020/12/02 11:37:53;;;;;;;44.90;12.85;;;6.60;89.30;;;;;;5108883;27;20031;-56
2020/12/02 11:40:22;;;;;;;53.35;13.00;;;6.60;89.50;;;;;;5093054;28;20047;-56
2020/12/02 11:43:08;;;;;;;44.35;12.93;;;6.60;89.50;;;;;;5056763;28;20750;-58
2020/12/02 11:45:39;;;;;;;58.22;13.15;;;6.70;89.60;;;;;;5084630;27;20070;-56
2020/12/02 11:48:34;;;;;;;51.58;14.25;;;6.70;89.60;;;;;;5086637;28;20263;-56
2020/12/02 11:51:14;;;;;;;54.88;14.27;;;6.70;89.60;;;;;;5082628;28;20077;-57
2020/12/02 11:54:05;;;;;;;57.83;14.00;;;6.70;89.70;;;;;;5091188;28;20027;-56
2020/12/02 11:56:37;;;;;;;70.63;14.75;;;6.70;89.70;;;;;;5059738;28;20068;-57
2020/12/02 11:59:16;;;;;;;42.53;13.15;;;6.70;90.10;;;;;;5056477;28;20985;-56
2020/12/02 12:01:50;;;;;;;40.90;13.85;;;6.70;89.80;;;;;;5058867;28;20111;-58
2020/12/02 12:04:32;;;;;;;71.18;13.90;;;6.70;89.60;;;;;;5080012;28;20028;-57
2020/12/02 12:07:07;;;;;;;55.88;13.57;;;6.70;89.50;;;;;;5078616;28;20036;-56
2020/12/02 12:09:38;;;;;;;55.65;14.80;;;6.80;89.40;;;;;;5087733;28;20023;-57
2020/12/02 12:12:16;;;;;;;62.53;15.27;;;6.80;89.30;;;;;;5049793;28;20035;-56
2020/12/02 12:14:51;;;;;;;57.92;15.05;;;6.80;89.40;;;;;;5079417;28;20089;-56
2020/12/02 12:17:23;;;;;;;52.75;14.15;;;6.80;89.30;;;;;;5067570;28;20118;-55
2020/12/02 12:19:55;;;;;;;56.45;13.98;;;6.80;89.10;;;;;;5081984;28;20044;-57
2020/12/02 12:22:36;;;;;;;55.30;13.70;;;6.80;89.10;;;;;;5068535;28;20030;-56
2020/12/02 12:25:19;;;;;;;55.13;15.18;;;6.80;89.30;;;;;;5081060;28;20499;-57
2020/12/02 12:27:44;;;;;;;64.45;15.07;;;6.80;89.10;;;;;;5083345;28;20031;-57
2020/12/02 12:30:10;;;;;;;64.95;15.52;;;6.80;89.00;;;;;;5069562;28;20034;-57
2020/12/02 12:33:09;;;;;;;61.00;15.55;;;6.80;88.90;;;;;;5085158;28;20044;-57
2020/12/02 12:35:43;;;;;;;44.25;14.57;;;6.80;88.90;;;;;;5103231;28;20024;-57
2020/12/02 12:38:24;;;;;;;47.97;14.50;;;6.80;88.90;;;;;;5086402;28;20016;-55
2020/12/02 12:41:13;;;;;;;69.70;14.35;;;6.80;88.60;;;;;;5067950;28;20024;-57
2020/12/02 12:43:52;;;;;;;52.20;14.38;;;6.80;88.50;;;;;;5086788;28;20043;-56
2020/12/02 12:46:23;;;;;;;57.50;15.38;;;6.80;88.70;;;;;;5084724;28;20747;-56
2020/12/02 12:48:48;;;;;;;53.28;13.32;;;6.80;88.60;;;;;;5069924;28;20024;-57
2020/12/02 12:51:14;;;;;;;58.65;14.07;;;6.80;88.50;;;;;;5066774;28;20408;-56
2020/12/02 12:53:40;;;;;;;68.07;14.63;;;6.80;88.50;;;;;;5084036;28;20127;-56
2020/12/02 12:56:07;;;;;;;63.00;14.98;;;6.80;88.40;;;;;;5103987;28;20339;-57
2020/12/02 12:58:33;;;;;;;60.63;14.98;;;6.80;88.60;;;;;;5070425;28;20028;-56
2020/12/02 13:00:58;;;;;;;56.40;15.50;;;6.80;88.60;;;;;;5087321;28;20016;-57